地図

経路データ

SID SEASON NUMBER BASIN SUBBASIN NAME ISO_TIME NATURE LAT LON WMO_WIND WMO_PRES WMO_AGENCY TRACK_TYPE DIST2LAND LANDFALL IFLAG USA_AGENCY USA_ATCF_ID USA_LAT USA_LON USA_RECORD USA_STATUS USA_WIND USA_PRES USA_SSHS USA_R34_NE USA_R34_SE USA_R34_SW USA_R34_NW USA_R50_NE USA_R50_SE USA_R50_SW USA_R50_NW USA_R64_NE USA_R64_SE USA_R64_SW USA_R64_NW USA_POCI USA_ROCI USA_RMW USA_EYE TOKYO_LAT TOKYO_LON TOKYO_GRADE TOKYO_WIND TOKYO_PRES TOKYO_R50_DIR TOKYO_R50_LONG TOKYO_R50_SHORT TOKYO_R30_DIR TOKYO_R30_LONG TOKYO_R30_SHORT TOKYO_LAND CMA_LAT CMA_LON CMA_CAT CMA_WIND CMA_PRES HKO_LAT HKO_LON HKO_CAT HKO_WIND HKO_PRES NEWDELHI_LAT NEWDELHI_LON NEWDELHI_GRADE NEWDELHI_WIND NEWDELHI_PRES NEWDELHI_CI NEWDELHI_DP NEWDELHI_POCI REUNION_LAT REUNION_LON REUNION_TYPE REUNION_WIND REUNION_PRES REUNION_TNUM REUNION_CI REUNION_RMW REUNION_R34_NE REUNION_R34_SE REUNION_R34_SW REUNION_R34_NW REUNION_R50_NE REUNION_R50_SE REUNION_R50_SW REUNION_R50_NW REUNION_R64_NE REUNION_R64_SE REUNION_R64_SW REUNION_R64_NW BOM_LAT BOM_LON BOM_TYPE BOM_WIND BOM_PRES BOM_TNUM BOM_CI BOM_RMW BOM_R34_NE BOM_R34_SE BOM_R34_SW BOM_R34_NW BOM_R50_NE BOM_R50_SE BOM_R50_SW BOM_R50_NW BOM_R64_NE BOM_R64_SE BOM_R64_SW BOM_R64_NW BOM_ROCI BOM_POCI BOM_EYE BOM_POS_METHOD BOM_PRES_METHOD NADI_LAT NADI_LON NADI_CAT NADI_WIND NADI_PRES WELLINGTON_LAT WELLINGTON_LON WELLINGTON_WIND WELLINGTON_PRES DS824_LAT DS824_LON DS824_STAGE DS824_WIND DS824_PRES TD9636_LAT TD9636_LON TD9636_STAGE TD9636_WIND TD9636_PRES TD9635_LAT TD9635_LON TD9635_WIND TD9635_PRES TD9635_ROCI NEUMANN_LAT NEUMANN_LON NEUMANN_CLASS NEUMANN_WIND NEUMANN_PRES MLC_LAT MLC_LON MLC_CLASS MLC_WIND MLC_PRES USA_GUST BOM_GUST BOM_GUST_PER REUNION_GUST REUNION_GUST_PER USA_SEAHGT USA_SEARAD_NE USA_SEARAD_SE USA_SEARAD_SW USA_SEARAD_NW STORM_SPEED STORM_DIR
1975272N13253 1975 103 EP MM NANETTE 1975-09-28 12:00:00 TS 12.8000 -107.000 25 hurdat_epa main 720 720 O________OO___ hurdat_epa EP141975 12.8000 -107.000 TD 25 -1 12.8000 -107.000 TC 25 12.8000 -107.000 1 25 7 270
1975272N13253 1975 103 EP MM NANETTE 1975-09-28 15:00:00 TS 12.8008 -107.350 main 738 738 P________PP___ EP141975 12.7951 -107.348 TD 27 -1 12.7951 -107.348 TC 27 12.8238 -107.358 1 26 7 271
1975272N13253 1975 103 EP MM NANETTE 1975-09-28 18:00:00 TS 12.8076 -107.702 30 hurdat_epa main 762 762 O________OP___ hurdat_epa EP141975 12.8000 -107.700 TD 30 -1 12.8000 -107.700 TC 30 12.8379 -107.712 1 27 7 271
1975272N13253 1975 103 EP MM NANETTE 1975-09-28 21:00:00 TS 12.8186 -108.058 main 788 788 P________PP___ EP141975 12.8150 -108.057 TD 30 -1 12.8150 -108.057 TC 30 12.8330 -108.061 1 28 7 269
1975272N13253 1975 103 EP MM NANETTE 1975-09-29 00:00:00 TS 12.8000 -108.400 30 hurdat_epa main 808 808 O________OO___ hurdat_epa EP141975 12.8000 -108.400 TD 30 -1 12.8000 -108.400 TC 30 12.8000 -108.400 1 30 6 261
1975272N13253 1975 103 EP MM NANETTE 1975-09-29 03:00:00 TS 12.7128 -108.711 main 838 838 P________PP___ EP141975 12.7074 -108.708 TD 30 -1 12.7074 -108.708 TC 30 12.7343 -108.727 1 28 6 252
1975272N13253 1975 103 EP MM NANETTE 1975-09-29 06:00:00 TS 12.6100 -109.008 30 hurdat_epa main 864 864 O________OP___ hurdat_epa EP141975 12.6000 -109.000 TD 30 -1 12.6000 -109.000 TC 30 12.6499 -109.038 1 27 6 254
1975272N13253 1975 103 EP MM NANETTE 1975-09-29 09:00:00 TS 12.5411 -109.318 main 891 891 P________PP___ EP141975 12.5350 -109.315 TD 30 -1 12.5350 -109.315 TC 30 12.5656 -109.330 1 26 6 259
1975272N13253 1975 103 EP MM NANETTE 1975-09-29 12:00:00 TS 12.5000 -109.600 30 hurdat_epa main 908 908 O________OO___ hurdat_epa EP141975 12.5000 -109.600 TD 30 -1 12.5000 -109.600 TC 30 12.5000 -109.600 1 25 5 264
1975272N13253 1975 103 EP MM NANETTE 1975-09-29 15:00:00 TS 12.4888 -109.812 main 920 920 P________PP___ EP141975 12.4924 -109.807 TD 32 -1 12.4924 -109.807 TC 32 12.4741 -109.830 1 27 4 269
1975272N13253 1975 103 EP MM NANETTE 1975-09-29 18:00:00 TS 12.4939 -110.008 35 hurdat_epa main 933 933 O________OP___ hurdat_epa EP141975 12.5000 -110.000 TS 35 0 12.5000 -110.000 TC 35 12.4696 -110.042 1 30 4 271
1975272N13253 1975 103 EP MM NANETTE 1975-09-29 21:00:00 TS 12.4960 -110.240 main 946 946 P________PP___ EP141975 12.5000 -110.235 TS 35 0 12.5000 -110.235 TC 35 12.4804 -110.258 1 32 5 271
1975272N13253 1975 103 EP MM NANETTE 1975-09-30 00:00:00 TS 12.5000 -110.500 35 hurdat_epa main 966 966 O________OO___ hurdat_epa EP141975 12.5000 -110.500 TS 35 0 12.5000 -110.500 TC 35 12.5000 -110.500 2 35 5 270
1975272N13253 1975 103 EP MM NANETTE 1975-09-30 03:00:00 TS 12.4967 -110.788 main 986 986 P________PP___ EP141975 12.4925 -110.785 TS 35 0 12.4925 -110.785 TC 35 12.5138 -110.800 2 35 6 271
1975272N13253 1975 103 EP MM NANETTE 1975-09-30 06:00:00 TS 12.5070 -111.106 35 hurdat_epa main 1008 1008 O________OP___ hurdat_epa EP141975 12.5000 -111.100 TS 35 0 12.5000 -111.100 TC 35 12.5351 -111.128 2 35 7 274
1975272N13253 1975 103 EP MM NANETTE 1975-09-30 09:00:00 TS 12.5468 -111.453 main 1037 1028 P________PP___ EP141975 12.5425 -111.450 TS 35 0 12.5425 -111.450 TC 35 12.5638 -111.466 2 35 7 278
1975272N13253 1975 103 EP MM NANETTE 1975-09-30 12:00:00 TS 12.6000 -111.800 35 hurdat_epa main 1051 1051 O________OO___ hurdat_epa EP141975 12.6000 -111.800 TS 35 0 12.6000 -111.800 TC 35 12.6000 -111.800 2 35 6 279
1975272N13253 1975 103 EP MM NANETTE 1975-09-30 15:00:00 TS 12.6484 -112.098 main 1074 1066 P________PP___ EP141975 12.6499 -112.108 TS 37 0 12.6499 -112.108 TC 37 12.6422 -112.059 2 37 6 280
1975272N13253 1975 103 EP MM NANETTE 1975-09-30 18:00:00 TS 12.6983 -112.384 40 hurdat_epa main 1089 1089 O________OP___ hurdat_epa EP141975 12.7000 -112.400 TS 40 0 12.7000 -112.400 TC 40 12.6915 -112.318 2 40 5 281
1975272N13253 1975 103 EP MM NANETTE 1975-09-30 21:00:00 TS 12.7488 -112.648 main 1104 1104 P________PP___ EP141975 12.7498 -112.655 TS 42 0 12.7498 -112.655 TC 42 12.7451 -112.618 2 42 6 280
1975272N13253 1975 103 EP MM NANETTE 1975-10-01 00:00:00 TS 12.8000 -113.000 45 hurdat_epa main 1127 1127 O________OO___ hurdat_epa EP141975 12.8000 -113.000 TS 45 0 12.8000 -113.000 TC 45 12.8000 -113.000 2 45 9 277
1975272N13253 1975 103 EP MM NANETTE 1975-10-01 03:00:00 TS 12.8494 -113.549 main 1166 1166 P________PP___ EP141975 12.8501 -113.555 TS 45 0 12.8501 -113.555 TC 45 12.8465 -113.526 2 43 12 275
1975272N13253 1975 103 EP MM NANETTE 1975-10-01 06:00:00 TS 12.8987 -114.187 45 hurdat_epa main 1203 1203 O________OP___ hurdat_epa EP141975 12.9000 -114.200 TS 45 0 12.9000 -114.200 TC 45 12.8933 -114.133 2 42 12 275
1975272N13253 1975 103 EP MM NANETTE 1975-10-01 09:00:00 TS 12.9486 -114.801 main 1228 1218 P________PP___ EP141975 12.9499 -114.808 TS 45 0 12.9499 -114.808 TC 45 12.9433 -114.773 2 41 12 275
1975272N13253 1975 103 EP MM NANETTE 1975-10-01 12:00:00 TS 13.0000 -115.400 45 hurdat_epa main 1245 1245 O________OO___ hurdat_epa EP141975 13.0000 -115.400 TS 45 0 13.0000 -115.400 TC 45 13.0000 -115.400 2 40 11 275
1975272N13253 1975 103 EP MM NANETTE 1975-10-01 15:00:00 TS 13.0424 -115.958 main 1276 1266 P________PP___ EP141975 13.0424 -115.965 TS 45 0 13.0424 -115.965 TC 45 13.0427 -115.931 2 41 11 275
1975272N13253 1975 103 EP MM NANETTE 1975-10-01 18:00:00 TS 13.0993 -116.489 45 hurdat_epa main 1293 1293 O________OP___ hurdat_epa EP141975 13.1000 -116.500 TS 45 0 13.1000 -116.500 TC 45 13.0964 -116.443 2 42 10 278
1975272N13253 1975 103 EP MM NANETTE 1975-10-01 21:00:00 TS 13.1772 -116.980 main 1312 1312 P________PP___ EP141975 13.1772 -116.985 TS 45 0 13.1772 -116.985 TC 45 13.1770 -116.959 2 43 10 282
1975272N13253 1975 103 EP MM NANETTE 1975-10-02 00:00:00 TS 13.3000 -117.500 45 hurdat_epa main 1334 1334 O________OO___ hurdat_epa EP141975 13.3000 -117.500 TS 45 0 13.3000 -117.500 TC 45 13.3000 -117.500 2 45 12 285
1975272N13253 1975 103 EP MM NANETTE 1975-10-02 03:00:00 TS 13.4801 -118.132 main 1354 1354 P________PP___ EP141975 13.4776 -118.135 TS 45 0 13.4776 -118.135 TC 45 13.4903 -118.120 2 43 13 288
1975272N13253 1975 103 EP MM NANETTE 1975-10-02 06:00:00 TS 13.7041 -118.793 45 hurdat_epa main 1385 1384 O________OP___ hurdat_epa EP141975 13.7000 -118.800 TS 45 0 13.7000 -118.800 TC 45 13.7204 -118.764 2 42 13 291
1975272N13253 1975 103 EP MM NANETTE 1975-10-02 09:00:00 TS 13.9529 -119.406 main 1404 1404 P________PP___ EP141975 13.9498 -119.408 TS 42 0 13.9498 -119.408 TC 42 13.9653 -119.401 2 41 13 293
1975272N13253 1975 103 EP MM NANETTE 1975-10-02 12:00:00 TS 14.2000 -120.000 40 hurdat_epa main 1433 1433 O________OO___ hurdat_epa EP141975 14.2000 -120.000 TS 40 0 14.2000 -120.000 TC 40 14.2000 -120.000 2 40 13 291
1975272N13253 1975 103 EP MM NANETTE 1975-10-02 15:00:00 TS 14.4155 -120.619 main 1455 1455 P________PP___ EP141975 14.4151 -120.638 TS 40 0 14.4151 -120.638 TC 40 14.4173 -120.542 2 40 12 290
1975272N13253 1975 103 EP MM NANETTE 1975-10-02 18:00:00 TS 14.6034 -121.168 40 hurdat_epa main 1476 1474 O________OP___ hurdat_epa EP141975 14.6000 -121.200 TS 40 0 14.6000 -121.200 TC 40 14.6170 -121.040 2 40 10 291
1975272N13253 1975 103 EP MM NANETTE 1975-10-02 21:00:00 TS 14.7744 -121.575 main 1486 1486 P________PP___ EP141975 14.7723 -121.595 TS 40 0 14.7723 -121.595 TC 40 14.7831 -121.492 2 40 8 293
1975272N13253 1975 103 EP MM NANETTE 1975-10-03 00:00:00 TS 14.9000 -121.900 40 hurdat_epa main 1499 1499 O________OO___ hurdat_epa EP141975 14.9000 -121.900 TS 40 0 14.9000 -121.900 TC 40 14.9000 -121.900 2 40 6 289
1975272N13253 1975 103 EP MM NANETTE 1975-10-03 03:00:00 TS 14.9811 -122.210 main 1512 1512 P________PP___ EP141975 14.9799 -122.200 TS 40 0 14.9799 -122.200 TC 40 14.9861 -122.248 2 40 6 280
1975272N13253 1975 103 EP MM NANETTE 1975-10-03 06:00:00 TS 15.0038 -122.511 40 hurdat_epa main 1534 1534 O________OP___ hurdat_epa EP141975 15.0000 -122.500 TS 40 0 15.0000 -122.500 TC 40 15.0190 -122.557 2 40 6 270
1975272N13253 1975 103 EP MM NANETTE 1975-10-03 09:00:00 TS 14.9824 -122.841 main 1557 1557 P________PP___ EP141975 14.9799 -122.835 TS 40 0 14.9799 -122.835 TC 40 14.9924 -122.863 2 40 7 261
1975272N13253 1975 103 EP MM NANETTE 1975-10-03 12:00:00 TS 14.9000 -123.200 40 hurdat_epa main 1595 1595 O________OO___ hurdat_epa EP141975 14.9000 -123.200 TS 40 0 14.9000 -123.200 TC 40 14.9000 -123.200 2 40 7 254
1975272N13253 1975 103 EP MM NANETTE 1975-10-03 15:00:00 TS 14.7778 -123.581 main 1633 1633 P________PP___ EP141975 14.7874 -123.577 TS 37 0 14.7874 -123.577 TC 37 14.7393 -123.594 2 37 8 248
1975272N13253 1975 103 EP MM NANETTE 1975-10-03 18:00:00 TS 14.5848 -124.007 35 hurdat_epa main 1679 1679 O________OP___ hurdat_epa EP141975 14.6000 -124.000 TS 35 0 14.6000 -124.000 TC 35 14.5238 -124.036 2 35 10 242
1975272N13253 1975 103 EP MM NANETTE 1975-10-03 21:00:00 TS 14.3145 -124.488 main 1741 1741 P________PP___ EP141975 14.3253 -124.483 TS 32 -1 14.3253 -124.483 TC 32 14.2714 -124.511 2 32 11 239
1975272N13253 1975 103 EP MM NANETTE 1975-10-04 00:00:00 TS 14.0000 -125.000 30 hurdat_epa main 1803 O________OO___ hurdat_epa EP141975 14.0000 -125.000 TD 30 -1 14.0000 -125.000 TC 30 14.0000 -125.000 1 30 12 238

IBTrACS Databaseについて

本データベースは、米国NOAAが公開する1842年以降の世界の熱帯低気圧のベストトラックデータアーカイブInternational Best Track Archive for Climate Stewardship (IBTrACS)を、ウェブで閲覧しやすい形式に変換したものです。

最終更新日:2021-10-21